createdAt,value
2022-10-29T00:04:11.428Z,10.63
2022-10-29T00:09:12.986Z,11.38
2022-10-29T00:14:15.873Z,11.50
2022-10-29T00:19:17.524Z,10.20
2022-10-29T00:24:19.074Z,12.15
2022-10-29T00:29:20.661Z,11.07
2022-10-29T00:34:22.236Z,10.77
2022-10-29T00:39:23.821Z,12.32
2022-10-29T00:44:39.023Z,11.00
2022-10-29T00:49:42.100Z,12.10
2022-10-29T00:54:46.320Z,12.15
2022-10-29T01:04:56.452Z,10.20
2022-10-29T01:09:58.165Z,10.82
2022-10-29T01:15:15.393Z,9.77
2022-10-29T01:21:02.018Z,10.30
2022-10-29T01:26:32.647Z,9.05
2022-10-29T01:31:38.293Z,10.52
2022-10-29T01:37:09.359Z,9.95
2022-10-29T01:42:39.953Z,11.25
2022-10-29T01:47:49.399Z,9.00
2022-10-29T01:52:53.009Z,8.88
2022-10-29T01:57:54.896Z,8.70
2022-10-29T02:03:20.557Z,7.57
2022-10-29T02:08:44.370Z,9.48
2022-10-29T02:14:07.654Z,8.13
2022-10-29T02:19:09.306Z,10.50
2022-10-29T02:24:11.195Z,9.98
2022-10-29T02:29:12.772Z,7.95
2022-10-29T02:34:14.448Z,10.43
2022-10-29T02:39:16.024Z,8.88
2022-10-29T02:44:17.595Z,8.10
2022-10-29T02:49:19.125Z,11.95
2022-10-29T02:54:20.723Z,8.55
2022-10-29T02:59:22.347Z,9.65
2022-10-29T03:04:23.911Z,8.85
2022-10-29T03:09:25.453Z,8.05
2022-10-29T03:14:27.023Z,8.38
2022-10-29T03:19:28.542Z,10.43
2022-10-29T03:24:30.098Z,7.45
2022-10-29T03:29:31.723Z,8.82
2022-10-29T03:34:33.258Z,6.93
2022-10-29T03:39:34.832Z,10.90
2022-10-29T03:44:36.373Z,6.60
2022-10-29T03:49:37.903Z,10.65
2022-10-29T03:54:39.487Z,11.68
2022-10-29T03:59:41.046Z,9.45
2022-10-29T04:04:42.591Z,12.80
2022-10-29T04:09:44.220Z,9.32
2022-10-29T04:14:45.943Z,12.07
2022-10-29T04:19:47.607Z,8.02
2022-10-29T04:27:01.714Z,9.48
2022-10-29T04:30:11.051Z,9.68
2022-10-29T04:35:12.682Z,10.70
2022-10-29T04:40:14.811Z,10.75
2022-10-29T04:45:18.661Z,8.60
2022-10-29T04:50:20.211Z,10.55
2022-10-29T04:55:21.752Z,10.90
2022-10-29T05:00:23.913Z,14.73
2022-10-29T05:05:25.805Z,9.27
2022-10-29T05:10:29.751Z,11.63
2022-10-29T05:15:31.393Z,10.05
2022-10-29T05:20:33.386Z,9.35
2022-10-29T05:25:38.150Z,13.13
2022-10-29T05:30:40.613Z,8.55
2022-10-29T05:35:42.491Z,8.45
2022-10-29T05:40:45.232Z,10.80
2022-10-29T05:45:47.302Z,8.73
2022-10-29T05:50:50.174Z,11.32
2022-10-29T05:55:51.771Z,9.38
2022-10-29T06:00:53.502Z,8.80
2022-10-29T06:05:55.172Z,9.27
2022-10-29T06:10:56.713Z,11.30
2022-10-29T06:15:59.913Z,14.05
2022-10-29T06:21:01.643Z,14.88
2022-10-29T06:26:03.521Z,17.98
2022-10-29T06:31:05.307Z,14.40
2022-10-29T06:36:07.153Z,10.98
2022-10-29T06:41:09.723Z,12.48
2022-10-29T06:46:11.266Z,11.25
2022-10-29T06:51:13.004Z,16.35
2022-10-29T06:56:14.819Z,13.80
2022-10-29T07:01:16.394Z,13.43
2022-10-29T07:06:17.957Z,12.05
2022-10-29T07:11:19.560Z,10.98
2022-10-29T07:16:21.105Z,12.98
2022-10-29T07:21:22.732Z,14.07
2022-10-29T07:26:24.386Z,10.73
2022-10-29T07:31:26.054Z,8.70
2022-10-29T07:36:30.998Z,8.02
2022-10-29T07:41:32.638Z,10.95
2022-10-29T07:46:34.265Z,8.75
2022-10-29T07:51:38.526Z,11.63
2022-10-29T07:56:42.430Z,12.23
2022-10-29T08:01:46.985Z,9.07
2022-10-29T08:06:48.837Z,13.35
2022-10-29T08:11:50.444Z,12.38
2022-10-29T08:16:55.222Z,14.07
2022-10-29T08:21:56.992Z,12.38
2022-10-29T08:26:59.744Z,8.45
2022-10-29T08:32:01.605Z,10.38
2022-10-29T08:37:03.183Z,9.10
2022-10-29T08:42:26.714Z,11.00
2022-10-29T08:47:35.026Z,10.07
2022-10-29T08:52:53.031Z,12.75
2022-10-29T08:58:11.077Z,12.13
2022-10-29T09:03:13.189Z,13.80
2022-10-29T09:08:42.199Z,17.17
2022-10-29T09:13:59.468Z,11.88
2022-10-29T09:19:20.771Z,15.68
2022-10-29T09:24:49.248Z,16.90
2022-10-29T09:29:59.845Z,14.38
2022-10-29T09:35:14.648Z,13.20
2022-10-29T09:40:18.336Z,16.40
2022-10-29T09:45:24.235Z,11.02
2022-10-29T09:50:43.529Z,15.70
2022-10-29T09:55:53.519Z,13.88
2022-10-29T10:00:57.233Z,14.60
2022-10-29T10:06:03.493Z,12.38
2022-10-29T10:11:08.147Z,13.20
2022-10-29T10:16:09.812Z,14.05
2022-10-29T10:21:24.250Z,12.88
2022-10-29T10:26:33.384Z,13.30
2022-10-29T10:31:34.953Z,16.60
2022-10-29T10:36:40.592Z,18.23
2022-10-29T10:41:42.767Z,14.52
2022-10-29T10:46:44.770Z,14.55
2022-10-29T10:51:49.552Z,15.65
2022-10-29T10:57:12.322Z,15.07
2022-10-29T11:02:33.551Z,17.67
2022-10-29T11:07:39.622Z,18.42
2022-10-29T11:12:46.519Z,17.00
2022-10-29T11:18:03.754Z,17.38
2022-10-29T11:23:24.147Z,15.48
2022-10-29T11:28:39.524Z,15.25
2022-10-29T11:33:56.620Z,16.50
2022-10-29T11:39:10.856Z,19.42
2022-10-29T11:44:14.601Z,17.17
2022-10-29T11:49:23.383Z,16.65
2022-10-29T11:54:37.619Z,16.33
2022-10-29T12:00:02.407Z,18.65
2022-10-29T12:05:40.211Z,16.05
2022-10-29T12:10:50.555Z,17.23
2022-10-29T12:16:12.558Z,17.50
2022-10-29T12:21:38.761Z,18.15
2022-10-29T12:26:57.905Z,18.10
2022-10-29T12:32:08.965Z,17.00
2022-10-29T12:37:10.491Z,17.13
2022-10-29T12:42:17.766Z,16.40
2022-10-29T12:48:20.841Z,15.68
2022-10-29T12:53:35.758Z,19.38
2022-10-29T12:58:57.251Z,16.08
2022-10-29T13:04:02.234Z,15.07
2022-10-29T13:09:25.108Z,15.70
2022-10-29T13:14:32.201Z,14.73
2022-10-29T13:19:44.721Z,15.75
2022-10-29T13:25:24.607Z,21.38
2022-10-29T13:30:29.079Z,18.05
2022-10-29T13:35:30.581Z,15.23
2022-10-29T13:40:32.135Z,21.02
2022-10-29T13:45:36.830Z,14.68
2022-10-29T13:50:40.091Z,16.73
2022-10-29T13:55:44.816Z,14.85
2022-10-29T14:00:47.677Z,14.57
2022-10-29T14:06:00.704Z,14.57
2022-10-29T14:11:11.858Z,17.42
2022-10-29T14:16:20.543Z,16.23
2022-10-29T14:21:23.484Z,21.02
2022-10-29T14:26:26.320Z,14.30
2022-10-29T14:31:28.233Z,14.10
2022-10-29T14:36:41.096Z,14.38
2022-10-29T14:41:43.956Z,14.88
2022-10-29T14:46:58.050Z,16.75
2022-10-29T14:52:15.167Z,15.52
2022-10-29T14:57:21.315Z,15.63
2022-10-29T15:02:37.641Z,13.93
2022-10-29T15:07:40.535Z,17.00
2022-10-29T15:12:42.122Z,15.10
2022-10-29T15:17:59.016Z,17.35
2022-10-29T15:23:01.672Z,16.42
2022-10-29T15:28:04.148Z,15.30
2022-10-29T15:33:14.085Z,14.98
2022-10-29T15:38:52.104Z,18.23
2022-10-29T15:43:57.242Z,14.43
2022-10-29T15:48:58.816Z,12.15
2022-10-29T15:54:02.770Z,38.92
2022-10-29T15:59:04.398Z,16.15
2022-10-29T16:04:06.029Z,14.10
2022-10-29T16:09:19.645Z,12.85
2022-10-29T16:14:21.226Z,15.00
2022-10-29T16:19:22.795Z,13.63
2022-10-29T16:24:24.449Z,20.13
2022-10-29T16:29:26.017Z,17.35
2022-10-29T16:34:27.657Z,17.65
2022-10-29T16:39:29.296Z,20.33
2022-10-29T16:44:30.900Z,22.98
2022-10-29T16:49:32.530Z,24.83
2022-10-29T16:54:34.169Z,22.88
2022-10-29T16:59:35.860Z,23.27
2022-10-29T17:04:37.684Z,23.60
2022-10-29T17:09:40.139Z,21.98
2022-10-29T17:14:41.787Z,21.50
2022-10-29T17:19:43.362Z,17.98
2022-10-29T17:24:45.606Z,21.83
2022-10-29T17:29:47.153Z,20.58
2022-10-29T17:34:48.848Z,25.98
2022-10-29T17:39:50.486Z,40.30
2022-10-29T17:44:52.017Z,34.33
2022-10-29T17:49:53.623Z,23.77
2022-10-29T17:54:55.276Z,32.88
2022-10-29T17:59:56.824Z,29.08
2022-10-29T18:04:58.713Z,38.65
2022-10-29T18:10:00.331Z,32.80
2022-10-29T18:15:01.991Z,43.97
2022-10-29T18:20:04.395Z,38.97
2022-10-29T18:25:06.444Z,38.85
2022-10-29T18:30:08.820Z,42.75
2022-10-29T18:35:10.381Z,37.17
2022-10-29T18:40:13.070Z,34.25
2022-10-29T18:45:14.692Z,30.85
2022-10-29T18:50:16.354Z,35.05
2022-10-29T18:55:17.953Z,42.53
2022-10-29T19:00:19.521Z,36.65
2022-10-29T19:05:21.084Z,35.88
2022-10-29T19:10:22.675Z,38.67
2022-10-29T19:15:24.252Z,38.05
2022-10-29T19:20:26.389Z,32.13
2022-10-29T19:25:28.732Z,42.58
2022-10-29T19:30:30.300Z,36.30
2022-10-29T19:35:31.870Z,33.97
2022-10-29T19:40:33.469Z,32.35
2022-10-29T19:45:38.395Z,39.15
2022-10-29T19:50:40.109Z,36.00
2022-10-29T19:55:41.958Z,32.42
2022-10-29T20:00:43.703Z,39.60
2022-10-29T20:05:46.473Z,37.50
2022-10-29T20:10:55.820Z,36.75
2022-10-29T20:15:57.736Z,43.90
2022-10-29T20:20:59.338Z,46.15
2022-10-29T20:26:01.244Z,41.97
2022-10-29T20:31:18.142Z,41.42
2022-10-29T20:36:20.169Z,46.30
2022-10-29T20:41:22.327Z,49.45
2022-10-29T20:46:25.241Z,41.03
2022-10-29T20:51:27.358Z,40.63
2022-10-29T20:56:29.067Z,39.25
2022-10-29T21:01:32.327Z,34.25
2022-10-29T21:06:34.003Z,40.97
2022-10-29T21:11:35.581Z,38.58
2022-10-29T21:16:37.169Z,37.78
2022-10-29T21:21:40.054Z,38.88
2022-10-29T21:26:41.592Z,31.95
2022-10-29T21:31:43.138Z,32.00
2022-10-29T21:36:44.702Z,29.23
2022-10-29T21:41:46.278Z,29.90
2022-10-29T21:46:47.849Z,34.88
2022-10-29T21:51:49.992Z,30.08
2022-10-29T21:56:51.636Z,31.15
2022-10-29T22:01:53.261Z,28.70
2022-10-29T22:06:55.971Z,22.95
2022-10-29T22:11:57.569Z,22.48
2022-10-29T22:16:59.198Z,23.80
2022-10-29T22:22:00.736Z,28.50
2022-10-29T22:27:02.343Z,21.55
2022-10-29T22:32:05.645Z,19.75
2022-10-29T22:37:07.217Z,21.02
2022-10-29T22:42:08.812Z,21.15
2022-10-29T22:47:10.417Z,19.83
2022-10-29T22:52:12.023Z,18.20
2022-10-29T22:57:13.658Z,17.63
2022-10-29T23:02:15.328Z,21.60
2022-10-29T23:07:16.990Z,17.27
2022-10-29T23:12:18.601Z,17.73
2022-10-29T23:17:20.179Z,15.95
2022-10-29T23:22:24.780Z,19.15
2022-10-29T23:27:29.141Z,16.25
2022-10-29T23:32:30.691Z,18.73
2022-10-29T23:37:32.288Z,19.58
2022-10-29T23:42:33.945Z,19.75
2022-10-29T23:47:35.530Z,17.70
2022-10-29T23:52:37.066Z,20.80
2022-10-29T23:57:38.654Z,15.23
